createdAt,value
2019-03-22T00:02:37.257Z,67.04
2019-03-22T00:06:40.799Z,67.13
2019-03-22T00:10:46.870Z,67.28
2019-03-22T00:14:50.672Z,67.70
2019-03-22T00:18:54.238Z,67.58
2019-03-22T00:22:58.710Z,67.85
2019-03-22T00:27:02.628Z,68.01
2019-03-22T00:31:06.348Z,67.75
2019-03-22T00:35:11.104Z,67.71
2019-03-22T00:39:14.814Z,67.16
2019-03-22T00:43:18.422Z,67.16
2019-03-22T00:47:23.057Z,67.63
2019-03-22T00:51:26.724Z,67.21
2019-03-22T00:55:30.386Z,67.02
2019-03-22T00:59:34.006Z,67.40
2019-03-22T01:03:37.560Z,66.85
2019-03-22T01:07:41.228Z,67.20
2019-03-22T01:11:44.842Z,67.44
2019-03-22T01:15:48.459Z,66.46
2019-03-22T01:19:52.071Z,66.18
2019-03-22T01:23:55.863Z,66.43
2019-03-22T01:27:59.505Z,66.95
2019-03-22T01:32:03.043Z,67.85
2019-03-22T01:36:06.732Z,67.84
2019-03-22T01:40:12.092Z,68.05
2019-03-22T01:44:15.702Z,68.41
2019-03-22T01:48:19.452Z,68.29
2019-03-22T01:52:23.136Z,67.47
2019-03-22T01:56:26.770Z,68.44
2019-03-22T02:00:30.767Z,67.95
2019-03-22T02:04:34.358Z,68.25
2019-03-22T02:08:38.203Z,68.52
2019-03-22T02:12:41.923Z,68.71
2019-03-22T02:16:45.636Z,68.57
2019-03-22T02:20:49.177Z,68.60
2019-03-22T02:24:52.892Z,68.04
2019-03-22T02:28:56.481Z,68.28
2019-03-22T02:33:00.091Z,68.16
2019-03-22T02:37:04.932Z,68.29
2019-03-22T02:41:08.587Z,68.58
2019-03-22T02:45:14.327Z,68.94
2019-03-22T02:49:17.924Z,69.11
2019-03-22T02:53:21.650Z,69.28
2019-03-22T02:57:25.471Z,69.28
2019-03-22T03:01:29.281Z,68.98
2019-03-22T03:05:33.002Z,69.00
2019-03-22T03:09:36.610Z,68.93
2019-03-22T03:13:40.511Z,68.95
2019-03-22T03:17:44.066Z,69.16
2019-03-22T03:21:47.770Z,68.98
2019-03-22T03:25:51.372Z,68.73
2019-03-22T03:29:55.343Z,68.86
2019-03-22T03:33:58.918Z,68.95
2019-03-22T03:38:02.629Z,68.85
2019-03-22T03:42:06.446Z,68.98
2019-03-22T03:46:10.164Z,69.15
2019-03-22T03:50:13.880Z,69.30
2019-03-22T03:54:17.430Z,69.26
2019-03-22T03:58:21.107Z,69.70
2019-03-22T04:02:25.172Z,69.79
2019-03-22T04:06:28.740Z,69.41
2019-03-22T04:10:32.738Z,69.65
2019-03-22T04:14:36.380Z,68.99
2019-03-22T04:18:40.005Z,69.28
2019-03-22T04:22:43.766Z,69.49
2019-03-22T04:26:47.396Z,69.44
2019-03-22T04:30:51.038Z,69.35
2019-03-22T04:34:54.652Z,69.36
2019-03-22T04:38:58.263Z,69.41
2019-03-22T04:43:01.885Z,69.39
2019-03-22T04:47:07.673Z,69.53
2019-03-22T04:51:12.177Z,69.52
2019-03-22T04:55:16.683Z,69.15
2019-03-22T04:59:21.423Z,69.45
2019-03-22T05:03:29.494Z,69.89
2019-03-22T05:07:33.581Z,69.33
2019-03-22T05:11:38.310Z,69.81
2019-03-22T05:15:43.182Z,69.25
2019-03-22T05:19:49.874Z,69.27
2019-03-22T05:23:56.738Z,69.21
2019-03-22T05:28:02.614Z,69.49
2019-03-22T05:32:08.038Z,69.48
2019-03-22T05:36:11.588Z,69.26
2019-03-22T05:40:16.231Z,68.88
2019-03-22T05:44:19.841Z,68.96
2019-03-22T05:48:24.073Z,68.95
2019-03-22T05:52:27.785Z,68.89
2019-03-22T05:56:31.623Z,68.98
2019-03-22T06:00:35.527Z,68.90
2019-03-22T06:04:39.151Z,68.79
2019-03-22T06:08:42.861Z,68.60
2019-03-22T06:12:46.469Z,68.05
2019-03-22T06:16:50.190Z,67.75
2019-03-22T06:20:53.801Z,67.69
2019-03-22T06:24:57.588Z,68.04
2019-03-22T06:29:01.243Z,68.09
2019-03-22T06:33:04.965Z,67.92
2019-03-22T06:37:08.676Z,67.92
2019-03-22T06:41:12.314Z,68.10
2019-03-22T06:45:15.897Z,68.27
2019-03-22T06:49:19.614Z,68.20
2019-03-22T06:53:23.227Z,68.06
2019-03-22T06:57:26.838Z,67.75
2019-03-22T07:01:30.672Z,67.34
2019-03-22T07:05:35.300Z,67.41
2019-03-22T07:09:38.857Z,67.20
2019-03-22T07:13:42.624Z,66.84
2019-03-22T07:17:46.239Z,66.68
2019-03-22T07:21:49.854Z,66.42
2019-03-22T07:25:53.469Z,66.82
2019-03-22T07:29:57.393Z,66.92
2019-03-22T07:34:01.005Z,66.20
2019-03-22T07:38:04.703Z,66.81
2019-03-22T07:42:08.333Z,66.53
2019-03-22T07:46:11.948Z,66.68
2019-03-22T07:50:15.663Z,66.25
2019-03-22T07:54:19.490Z,66.33
2019-03-22T07:58:23.537Z,65.85
2019-03-22T08:02:27.228Z,66.18
2019-03-22T08:06:30.946Z,66.57
2019-03-22T08:10:34.666Z,66.26
2019-03-22T08:14:38.422Z,65.96
2019-03-22T08:18:42.298Z,66.07
2019-03-22T08:22:46.011Z,66.30
2019-03-22T08:26:49.623Z,65.42
2019-03-22T08:30:53.243Z,65.37
2019-03-22T08:34:59.627Z,65.61
2019-03-22T08:39:03.648Z,64.39
2019-03-22T08:43:07.258Z,64.40
2019-03-22T08:47:10.970Z,64.96
2019-03-22T08:51:14.587Z,64.25
2019-03-22T08:55:18.428Z,64.10
2019-03-22T08:59:22.117Z,63.40
2019-03-22T09:03:25.879Z,63.26
2019-03-22T09:07:29.490Z,63.52
2019-03-22T09:11:33.068Z,63.61
2019-03-22T09:15:41.039Z,62.89
2019-03-22T09:19:46.175Z,63.41
2019-03-22T09:23:51.964Z,62.48
2019-03-22T09:27:59.210Z,62.67
2019-03-22T09:32:02.907Z,61.48
2019-03-22T09:36:06.546Z,60.18
2019-03-22T09:40:10.530Z,61.70
2019-03-22T09:44:18.719Z,60.63
2019-03-22T09:48:23.366Z,61.82
2019-03-22T09:52:33.788Z,62.12
2019-03-22T09:56:47.208Z,62.80
2019-03-22T10:00:50.809Z,61.60
2019-03-22T10:04:54.459Z,62.11
2019-03-22T10:08:58.084Z,62.17
2019-03-22T10:13:01.824Z,61.73
2019-03-22T10:17:05.500Z,60.03
2019-03-22T10:21:21.524Z,57.64
2019-03-22T10:25:14.866Z,57.58
2019-03-22T10:29:18.443Z,54.91
2019-03-22T10:33:23.305Z,56.44
2019-03-22T10:37:27.101Z,57.06
2019-03-22T10:41:31.811Z,52.37
2019-03-22T10:45:35.564Z,52.18
2019-03-22T10:49:41.812Z,54.73
2019-03-22T10:53:44.540Z,54.60
2019-03-22T10:57:48.213Z,52.40
2019-03-22T11:02:02.598Z,56.28
2019-03-22T11:05:57.165Z,57.17
2019-03-22T11:10:00.828Z,55.73
2019-03-22T11:14:04.596Z,56.08
2019-03-22T11:18:08.318Z,58.97
2019-03-22T11:22:11.935Z,58.79
2019-03-22T11:26:15.543Z,55.84
2019-03-22T11:30:19.581Z,56.41
2019-03-22T11:34:23.284Z,57.81
2019-03-22T11:38:26.999Z,54.28
2019-03-22T11:42:30.615Z,55.91
2019-03-22T11:46:34.433Z,57.18
2019-03-22T11:50:38.007Z,57.77
2019-03-22T11:54:41.664Z,56.52
2019-03-22T11:58:45.377Z,58.21
2019-03-22T12:02:49.196Z,57.27
2019-03-22T12:06:52.812Z,58.56
2019-03-22T12:10:56.424Z,57.21
2019-03-22T12:15:00.075Z,58.21
2019-03-22T12:19:03.654Z,57.04
2019-03-22T12:23:07.578Z,56.81
2019-03-22T12:27:11.192Z,57.80
2019-03-22T12:31:14.847Z,55.48
2019-03-22T12:35:18.930Z,55.34
2019-03-22T12:39:22.647Z,57.16
2019-03-22T12:43:26.258Z,56.88
2019-03-22T12:47:30.519Z,56.68
2019-03-22T12:51:42.826Z,57.41
2019-03-22T12:55:54.112Z,57.89
2019-03-22T13:00:02.763Z,58.18
2019-03-22T13:04:07.696Z,55.73
2019-03-22T13:08:11.414Z,56.30
2019-03-22T13:12:16.139Z,55.34
2019-03-22T13:16:19.711Z,55.81
2019-03-22T13:20:23.572Z,56.44
2019-03-22T13:24:27.186Z,56.39
2019-03-22T13:28:30.839Z,56.72
2019-03-22T13:32:34.627Z,55.32
2019-03-22T13:36:38.237Z,54.32
2019-03-22T13:40:41.855Z,56.00
2019-03-22T13:44:45.461Z,55.07
2019-03-22T13:48:49.081Z,55.36
2019-03-22T13:52:52.689Z,55.77
2019-03-22T13:56:56.305Z,55.99
2019-03-22T14:01:00.230Z,55.00
2019-03-22T14:05:05.171Z,55.20
2019-03-22T14:09:09.910Z,55.36
2019-03-22T14:13:13.490Z,54.47
2019-03-22T14:17:17.163Z,55.43
2019-03-22T14:21:20.855Z,56.74
2019-03-22T14:25:24.577Z,55.09
2019-03-22T14:29:28.190Z,55.81
2019-03-22T14:33:31.900Z,55.52
2019-03-22T14:37:35.619Z,55.02
2019-03-22T14:41:39.251Z,55.24
2019-03-22T14:45:42.949Z,55.27
2019-03-22T14:49:46.682Z,54.80
2019-03-22T14:53:50.280Z,54.75
2019-03-22T14:57:53.940Z,55.14
2019-03-22T15:02:17.143Z,55.05
2019-03-22T15:06:21.498Z,54.26
2019-03-22T15:10:25.232Z,55.02
2019-03-22T15:14:39.377Z,55.07
2019-03-22T15:18:50.169Z,56.34
2019-03-22T15:22:58.178Z,56.08
2019-03-22T15:27:09.367Z,56.19
2019-03-22T15:31:23.848Z,56.66
2019-03-22T15:35:45.812Z,55.72
2019-03-22T15:39:53.908Z,55.86
2019-03-22T15:43:57.570Z,56.32
2019-03-22T15:48:01.343Z,56.54
2019-03-22T15:52:05.117Z,56.95
2019-03-22T15:56:08.671Z,57.74
2019-03-22T16:00:17.483Z,58.09
2019-03-22T16:04:21.128Z,57.72
2019-03-22T16:08:24.753Z,58.64
2019-03-22T16:12:28.347Z,59.12
2019-03-22T16:16:32.063Z,59.67
2019-03-22T16:20:35.678Z,60.23
2019-03-22T16:24:39.499Z,59.56
2019-03-22T16:28:43.122Z,60.48
2019-03-22T16:32:46.831Z,60.87
2019-03-22T16:36:50.399Z,61.55
2019-03-22T16:40:54.059Z,61.87
2019-03-22T16:44:57.670Z,62.00
2019-03-22T16:49:01.284Z,61.61
2019-03-22T16:53:05.631Z,62.52
2019-03-22T16:57:09.230Z,63.46
2019-03-22T17:01:12.952Z,63.65
2019-03-22T17:05:16.667Z,64.01
2019-03-22T17:09:20.483Z,64.44
2019-03-22T17:13:24.051Z,64.45
2019-03-22T17:17:40.198Z,64.69
2019-03-22T17:21:44.330Z,65.06
2019-03-22T17:25:47.943Z,65.56
2019-03-22T17:29:52.172Z,65.81
2019-03-22T17:33:55.732Z,66.17
2019-03-22T17:37:59.506Z,66.15
2019-03-22T17:42:03.324Z,66.24
2019-03-22T17:50:17.782Z,66.87
2019-03-22T17:54:21.338Z,66.80
2019-03-22T18:12:25.212Z,68.94
2019-03-22T18:16:28.780Z,68.91
2019-03-22T18:20:32.432Z,69.30
2019-03-22T18:24:36.998Z,69.69
2019-03-22T18:28:40.769Z,69.06
2019-03-22T18:32:45.130Z,69.56
2019-03-22T18:36:48.905Z,69.58
2019-03-22T18:40:52.579Z,69.54
2019-03-22T18:44:56.498Z,69.50
2019-03-22T18:49:00.462Z,69.81
2019-03-22T18:53:03.986Z,69.62
2019-03-22T18:57:08.076Z,70.09
2019-03-22T19:01:11.892Z,69.92
2019-03-22T19:05:16.673Z,70.48
2019-03-22T19:09:20.451Z,70.62
2019-03-22T19:13:30.671Z,69.91
2019-03-22T19:17:29.479Z,70.49
2019-03-22T19:21:33.184Z,70.66
2019-03-22T19:25:37.122Z,70.87
2019-03-22T19:29:40.904Z,70.74
2019-03-22T19:33:44.592Z,71.15
2019-03-22T19:37:48.368Z,70.87
2019-03-22T19:41:52.058Z,70.77
2019-03-22T19:45:55.710Z,70.71
2019-03-22T19:49:59.366Z,70.77
2019-03-22T19:54:03.153Z,71.43
2019-03-22T19:58:07.026Z,71.42
2019-03-22T20:02:10.875Z,71.24
2019-03-22T20:06:14.781Z,71.20
2019-03-22T20:10:18.972Z,71.35
2019-03-22T20:14:23.038Z,71.24
2019-03-22T20:18:26.644Z,71.49
2019-03-22T20:22:30.127Z,71.84
2019-03-22T20:26:33.704Z,71.70
2019-03-22T20:30:37.331Z,71.51
2019-03-22T20:34:40.856Z,71.55
2019-03-22T20:38:44.391Z,71.55
2019-03-22T20:42:48.065Z,71.56
2019-03-22T20:46:51.579Z,71.85
2019-03-22T20:50:55.182Z,72.03
2019-03-22T20:54:58.859Z,72.04
2019-03-22T20:59:02.441Z,72.41
2019-03-22T21:03:06.313Z,72.31
2019-03-22T21:12:03.892Z,71.98
2019-03-22T21:16:12.400Z,72.33
2019-03-22T21:20:50.985Z,73.09
2019-03-22T21:24:54.597Z,73.22
2019-03-22T21:28:58.094Z,73.57
2019-03-22T21:33:01.602Z,73.52
2019-03-22T21:37:06.089Z,73.00
2019-03-22T21:41:09.613Z,72.70
2019-03-22T21:45:13.466Z,72.80
2019-03-22T21:49:17.014Z,72.95
2019-03-22T21:53:20.509Z,72.94
2019-03-22T21:57:24.977Z,73.05
2019-03-22T22:01:28.493Z,73.12
2019-03-22T22:05:32.017Z,73.82
2019-03-22T22:09:35.529Z,73.66
2019-03-22T22:13:39.023Z,73.55
2019-03-22T22:17:42.932Z,73.18
2019-03-22T22:21:46.447Z,73.20
2019-03-22T22:25:51.534Z,73.54
2019-03-22T22:34:58.926Z,73.69
2019-03-22T22:39:02.404Z,73.54
2019-03-22T22:43:05.936Z,73.66
2019-03-22T22:47:09.458Z,73.64
2019-03-22T22:51:12.978Z,73.73
2019-03-22T22:55:16.488Z,73.68
2019-03-22T22:59:19.982Z,73.60
2019-03-22T23:03:23.533Z,74.53
2019-03-22T23:07:27.104Z,74.53
2019-03-22T23:11:30.567Z,74.22
2019-03-22T23:15:34.090Z,74.05
2019-03-22T23:19:37.575Z,74.21
2019-03-22T23:23:41.088Z,74.20
2019-03-22T23:27:44.657Z,74.43
2019-03-22T23:31:49.268Z,74.26
2019-03-22T23:35:53.001Z,74.15
2019-03-22T23:39:56.501Z,74.26
2019-03-22T23:44:02.158Z,74.17
2019-03-22T23:48:05.686Z,74.18
2019-03-22T23:52:09.233Z,74.31
2019-03-22T23:56:13.663Z,74.44
